createdAt,value
2018-07-02T00:00:32.129Z,101295.63
2018-07-02T00:03:00.965Z,101296.72
2018-07-02T00:05:40.791Z,101294.97
2018-07-02T00:08:10.797Z,101296.69
2018-07-02T00:10:40.094Z,101288.38
2018-07-02T00:13:09.116Z,101291.58
2018-07-02T00:15:39.202Z,101288.05
2018-07-02T00:18:09.651Z,101289.40
2018-07-02T00:20:38.537Z,101288.05
2018-07-02T00:23:08.462Z,101291.95
2018-07-02T00:25:37.363Z,101286.71
2018-07-02T00:28:06.734Z,101284.03
2018-07-02T00:30:35.554Z,101291.45
2018-07-02T00:33:05.139Z,101286.59
2018-07-02T00:35:33.941Z,101280.92
2018-07-02T00:38:02.739Z,101292.18
2018-07-02T00:40:32.504Z,101286.81
2018-07-02T00:43:01.980Z,101289.49
2018-07-02T00:45:30.779Z,101280.80
2018-07-02T00:47:59.562Z,101282.97
2018-07-02T00:50:28.450Z,101285.14
2018-07-02T00:52:57.226Z,101277.47
2018-07-02T00:55:26.918Z,101271.33
2018-07-02T00:57:55.741Z,101270.18
2018-07-02T01:00:24.566Z,101265.60
2018-07-02T01:02:53.492Z,101262.43
2018-07-02T01:05:22.304Z,101255.00
2018-07-02T01:07:52.251Z,101251.45
2018-07-02T01:10:21.082Z,101258.27
2018-07-02T01:12:49.874Z,101253.05
2018-07-02T01:15:19.308Z,101252.73
2018-07-02T01:17:48.844Z,101251.39
2018-07-02T01:20:18.474Z,101246.53
2018-07-02T01:22:48.077Z,101245.16
2018-07-02T01:25:17.746Z,101246.16
2018-07-02T01:27:47.183Z,101238.91
2018-07-02T01:30:16.766Z,101240.36
2018-07-02T01:32:45.549Z,101246.31
2018-07-02T01:35:15.163Z,101244.08
2018-07-02T01:37:44.222Z,101238.94
2018-07-02T01:40:14.306Z,101245.56
2018-07-02T01:42:44.167Z,101241.77
2018-07-02T01:45:14.031Z,101244.12
2018-07-02T01:47:43.353Z,101240.03
2018-07-02T01:50:12.531Z,101242.41
2018-07-02T01:52:41.519Z,101233.14
2018-07-02T01:55:11.220Z,101233.69
2018-07-02T01:57:41.114Z,101228.55
2018-07-02T02:00:10.198Z,101229.38
2018-07-02T02:02:39.051Z,101228.10
2018-07-02T02:05:07.847Z,101231.83
2018-07-02T02:07:37.486Z,101225.41
2018-07-02T02:10:06.370Z,101222.11
2018-07-02T02:12:35.137Z,101226.19
2018-07-02T02:15:05.064Z,101221.55
2018-07-02T02:17:34.770Z,101226.41
2018-07-02T02:20:04.215Z,101222.75
2018-07-02T02:22:34.117Z,101226.00
2018-07-02T02:25:03.583Z,101220.14
2018-07-02T02:27:32.358Z,101215.63
2018-07-02T02:30:02.603Z,101209.59
2018-07-02T02:32:31.581Z,101208.04
2018-07-02T02:35:00.384Z,101200.84
2018-07-02T02:37:29.243Z,101206.70
2018-07-02T02:39:59.041Z,101198.67
2018-07-02T02:42:27.856Z,101205.19
2018-07-02T02:44:56.668Z,101201.17
2018-07-02T02:47:25.502Z,101203.34
2018-07-02T02:49:54.315Z,101200.48
2018-07-02T02:52:23.272Z,101202.81
2018-07-02T02:54:52.823Z,101194.56
2018-07-02T02:57:22.384Z,101187.27
2018-07-02T02:59:51.192Z,101181.69
2018-07-02T03:02:20.031Z,101181.08
2018-07-02T03:04:48.869Z,101173.03
2018-07-02T03:07:18.362Z,101176.11
2018-07-02T03:09:47.244Z,101170.50
2018-07-02T03:12:16.010Z,101165.39
2018-07-02T03:14:45.891Z,101159.42
2018-07-02T03:17:15.495Z,101157.54
2018-07-02T03:19:45.497Z,101155.91
2018-07-02T03:22:16.618Z,101153.47
2018-07-02T03:24:46.317Z,101153.10
2018-07-02T03:27:16.323Z,101151.45
2018-07-02T03:29:45.968Z,101147.71
2018-07-02T03:32:15.936Z,101143.64
2018-07-02T03:34:45.593Z,101144.52
2018-07-02T03:37:14.893Z,101135.52
2018-07-02T03:39:44.526Z,101137.47
2018-07-02T03:42:14.094Z,101127.39
2018-07-02T03:44:43.170Z,101123.44
2018-07-02T03:47:12.683Z,101123.85
2018-07-02T03:49:41.701Z,101120.09
2018-07-02T03:52:10.641Z,101120.77
2018-07-02T03:54:40.240Z,101117.38
2018-07-02T03:57:10.131Z,101107.31
2018-07-02T03:59:38.933Z,101113.62
2018-07-02T04:02:07.782Z,101110.49
2018-07-02T04:04:36.637Z,101108.88
2018-07-02T04:07:06.294Z,101109.70
2018-07-02T04:09:35.662Z,101098.55
2018-07-02T04:12:04.483Z,101100.09
2018-07-02T04:14:33.960Z,101088.69
2018-07-02T04:17:03.909Z,101081.84
2018-07-02T04:19:33.344Z,101089.66
2018-07-02T04:22:02.738Z,101085.11
2018-07-02T04:24:32.416Z,101090.02
2018-07-02T04:27:01.268Z,101084.89
2018-07-02T04:29:30.851Z,101090.71
2018-07-02T04:32:00.524Z,101095.91
2018-07-02T04:34:29.312Z,101093.95
2018-07-02T04:36:58.162Z,101092.06
2018-07-02T04:39:26.993Z,101077.22
2018-07-02T04:41:55.806Z,101085.20
2018-07-02T04:44:24.727Z,101085.02
2018-07-02T04:46:53.607Z,101069.27
2018-07-02T04:49:22.413Z,101074.52
2018-07-02T04:51:51.197Z,101071.52
2018-07-02T04:54:20.823Z,101066.88
2018-07-02T04:56:50.230Z,101064.56
2018-07-02T04:59:19.122Z,101057.06
2018-07-02T05:01:47.935Z,101051.00
2018-07-02T05:04:16.930Z,101051.06
2018-07-02T05:06:46.498Z,101044.39
2018-07-02T05:09:16.378Z,101050.10
2018-07-02T05:11:45.345Z,101052.86
2018-07-02T05:14:15.155Z,101041.23
2018-07-02T05:16:45.078Z,101048.11
2018-07-02T05:19:15.364Z,101038.30
2018-07-02T05:21:45.264Z,101042.73
2018-07-02T05:24:15.539Z,101041.39
2018-07-02T05:26:46.366Z,101032.16
2018-07-02T05:29:16.026Z,101036.38
2018-07-02T05:31:45.787Z,101048.96
2018-07-02T05:34:14.997Z,101038.40
2018-07-02T05:36:44.629Z,101036.38
2018-07-02T05:39:13.792Z,101029.84
2018-07-02T05:41:43.929Z,101030.75
2018-07-02T05:44:12.982Z,101035.05
2018-07-02T05:46:41.999Z,101037.20
2018-07-02T05:49:10.894Z,101035.92
2018-07-02T05:51:39.683Z,101035.30
2018-07-02T05:54:08.599Z,101035.98
2018-07-02T05:56:38.398Z,101034.92
2018-07-02T05:59:07.611Z,101036.09
2018-07-02T06:01:36.445Z,101026.36
2018-07-02T06:04:05.288Z,101030.09
2018-07-02T06:06:34.710Z,101031.52
2018-07-02T06:09:05.090Z,101029.22
2018-07-02T06:11:33.826Z,101026.25
2018-07-02T06:14:03.670Z,101034.02
2018-07-02T06:16:33.255Z,101033.59
2018-07-02T06:19:02.873Z,101032.47
2018-07-02T06:21:31.613Z,101032.72
2018-07-02T06:24:01.199Z,101030.64
2018-07-02T06:26:29.933Z,101026.94
2018-07-02T06:28:59.241Z,101024.43
2018-07-02T06:31:28.774Z,101028.52
2018-07-02T06:33:57.522Z,101026.38
2018-07-02T06:36:26.263Z,101020.59
2018-07-02T06:38:55.091Z,101020.45
2018-07-02T06:41:23.866Z,101026.64
2018-07-02T06:43:52.903Z,101024.21
2018-07-02T06:46:21.772Z,101021.30
2018-07-02T06:51:33.708Z,101018.32
2018-07-02T06:54:03.457Z,101011.69
2018-07-02T06:56:33.035Z,101006.27
2018-07-02T06:59:01.842Z,101006.46
2018-07-02T07:01:30.591Z,101007.22
2018-07-02T07:03:59.721Z,101003.76
2018-07-02T07:06:29.205Z,100998.44
2018-07-02T07:08:58.398Z,100992.13
2018-07-02T07:11:27.122Z,100991.59
2018-07-02T07:13:56.569Z,100998.95
2018-07-02T07:16:25.847Z,100988.22
2018-07-02T07:18:55.411Z,100988.27
2018-07-02T07:21:24.179Z,100989.50
2018-07-02T07:23:53.584Z,100987.36
2018-07-02T07:26:22.332Z,100985.23
2018-07-02T07:28:51.668Z,100981.49
2018-07-02T07:31:21.098Z,100976.30
2018-07-02T07:33:49.948Z,100971.05
2018-07-02T07:36:19.423Z,100974.69
2018-07-02T07:38:48.213Z,100971.04
2018-07-02T07:41:17.190Z,100972.03
2018-07-02T07:43:46.082Z,100967.32
2018-07-02T07:46:15.187Z,100964.43
2018-07-02T07:48:44.706Z,100953.31
2018-07-02T07:51:13.984Z,100958.25
2018-07-02T07:53:42.967Z,100956.46
2018-07-02T07:56:13.287Z,100957.17
2018-07-02T07:58:42.175Z,100955.87
2018-07-02T08:01:10.970Z,100956.80
2018-07-02T08:03:39.808Z,100944.36
2018-07-02T08:06:09.669Z,100935.41
2018-07-02T08:08:38.426Z,100940.31
2018-07-02T08:11:07.219Z,100938.22
2018-07-02T08:13:36.976Z,100935.20
2018-07-02T08:16:06.485Z,100931.16
2018-07-02T08:18:36.362Z,100935.04
2018-07-02T08:21:05.123Z,100932.63
2018-07-02T08:23:34.371Z,100930.21
2018-07-02T08:26:03.223Z,100926.13
2018-07-02T08:28:32.735Z,100922.89
2018-07-02T08:31:02.552Z,100915.06
2018-07-02T08:33:31.354Z,100921.06
2018-07-02T08:36:00.121Z,100914.82
2018-07-02T08:38:28.989Z,100904.26
2018-07-02T08:40:57.786Z,100906.45
2018-07-02T08:43:26.642Z,100908.65
2018-07-02T08:45:55.379Z,100902.93
2018-07-02T08:48:24.338Z,100893.40
2018-07-02T08:50:53.094Z,100877.28
2018-07-02T08:53:21.878Z,100888.21
2018-07-02T08:55:51.614Z,100886.72
2018-07-02T08:58:20.442Z,100888.99
2018-07-02T09:00:49.178Z,100877.36
2018-07-02T09:03:17.969Z,100879.30
2018-07-02T09:05:47.751Z,100881.51
2018-07-02T09:08:16.730Z,100868.46
2018-07-02T09:10:45.710Z,100869.83
2018-07-02T09:13:15.825Z,100861.65
2018-07-02T09:15:46.150Z,100872.30
2018-07-02T09:18:16.186Z,100854.86
2018-07-02T09:20:45.132Z,100865.52
2018-07-02T09:23:14.824Z,100863.62
2018-07-02T09:25:43.578Z,100870.14
2018-07-02T09:28:13.842Z,100863.87
2018-07-02T09:30:42.627Z,100857.87
2018-07-02T09:33:13.268Z,100857.60
2018-07-02T09:35:42.035Z,100859.48
2018-07-02T09:38:10.867Z,100854.02
2018-07-02T09:40:39.701Z,100871.72
2018-07-02T09:43:08.450Z,100855.11
2018-07-02T09:45:37.355Z,100851.60
2018-07-02T09:48:06.186Z,100842.05
2018-07-02T09:50:34.931Z,100844.23
2018-07-02T09:53:03.711Z,100835.75
2018-07-02T09:55:33.312Z,100840.92
2018-07-02T09:58:02.074Z,100845.80
2018-07-02T10:00:30.911Z,100845.78
2018-07-02T10:02:59.723Z,100843.59
2018-07-02T10:05:28.494Z,100840.30
2018-07-02T10:07:57.883Z,100843.56
2018-07-02T10:10:27.594Z,100836.20
2018-07-02T10:12:56.327Z,100837.03
2018-07-02T10:15:26.144Z,100835.94
2018-07-02T10:17:55.645Z,100826.69
2018-07-02T10:20:25.054Z,100825.64
2018-07-02T10:22:54.798Z,100828.64
2018-07-02T10:25:23.809Z,100818.02
2018-07-02T10:27:52.567Z,100814.77
2018-07-02T10:30:22.512Z,100803.33
2018-07-02T10:32:52.056Z,100802.53
2018-07-02T10:35:20.909Z,100791.86
2018-07-02T10:37:49.694Z,100799.22
2018-07-02T10:40:19.518Z,100788.86
2018-07-02T10:42:48.614Z,100789.41
2018-07-02T10:45:17.985Z,100789.94
2018-07-02T10:47:47.070Z,100790.73
2018-07-02T10:50:16.424Z,100781.18
2018-07-02T10:52:46.943Z,100780.91
2018-07-02T10:55:17.134Z,100783.36
2018-07-02T10:57:46.699Z,100777.08
2018-07-02T11:00:17.295Z,100779.81
2018-07-02T11:02:46.381Z,100771.07
2018-07-02T11:05:15.179Z,100765.58
2018-07-02T11:07:44.929Z,100763.66
2018-07-02T11:10:13.672Z,100759.80
2018-07-02T11:12:42.414Z,100748.89
2018-07-02T11:15:11.962Z,100757.05
2018-07-02T11:17:41.422Z,100748.58
2018-07-02T11:20:11.107Z,100744.52
2018-07-02T11:22:40.863Z,100741.20
2018-07-02T11:25:10.290Z,100732.99
2018-07-02T11:27:39.087Z,100737.92
2018-07-02T11:30:08.628Z,100731.63
2018-07-02T11:32:38.289Z,100740.88
2018-07-02T11:35:07.045Z,100735.13
2018-07-02T11:37:35.862Z,100742.98
2018-07-02T11:40:04.742Z,100738.93
2018-07-02T11:42:33.703Z,100735.66
2018-07-02T11:45:02.595Z,100732.37
2018-07-02T11:47:31.802Z,100724.17
2018-07-02T11:50:00.586Z,100724.67
2018-07-02T11:52:29.358Z,100732.80
2018-07-02T11:54:59.325Z,100733.54
2018-07-02T11:57:29.452Z,100728.68
2018-07-02T11:59:58.203Z,100722.92
2018-07-02T12:02:27.007Z,100720.67
2018-07-02T12:04:56.617Z,100730.77
2018-07-02T12:07:28.999Z,100730.75
2018-07-02T12:09:57.752Z,100732.41
2018-07-02T12:12:26.515Z,100723.12
2018-07-02T12:14:56.082Z,100718.22
2018-07-02T12:17:25.511Z,100703.25
2018-07-02T12:19:54.773Z,100716.38
2018-07-02T12:22:24.359Z,100712.84
2018-07-02T12:24:53.915Z,100710.02
2018-07-02T12:27:22.753Z,100712.45
2018-07-02T12:29:52.429Z,100707.24
2018-07-02T12:32:22.066Z,100697.92
2018-07-02T12:34:50.791Z,100708.53
2018-07-02T12:37:19.668Z,100706.28
2018-07-02T12:39:48.770Z,100698.61
2018-07-02T12:42:18.130Z,100687.69
2018-07-02T12:44:47.212Z,100698.33
2018-07-02T12:47:16.109Z,100712.01
2018-07-02T12:49:44.907Z,100706.83
2018-07-02T12:52:13.660Z,100705.73
2018-07-02T12:54:43.485Z,100693.59
2018-07-02T12:57:13.180Z,100685.09
2018-07-02T12:59:41.939Z,100699.11
2018-07-02T13:02:11.564Z,100685.37
2018-07-02T13:05:44.469Z,100691.92
2018-07-02T13:08:13.221Z,100695.21
2018-07-02T13:10:42.050Z,100699.62
2018-07-02T13:13:10.822Z,100701.45
2018-07-02T13:15:40.545Z,100687.11
2018-07-02T13:18:10.253Z,100688.46
2018-07-02T13:20:39.011Z,100683.75
2018-07-02T13:23:08.534Z,100682.72
2018-07-02T13:25:37.457Z,100687.39
2018-07-02T13:28:07.242Z,100666.59
2018-07-02T13:30:36.016Z,100666.51
2018-07-02T13:33:05.566Z,100665.05
2018-07-02T13:35:34.969Z,100663.08
2018-07-02T13:38:03.796Z,100649.35
2018-07-02T13:40:32.647Z,100656.73
2018-07-02T13:43:01.529Z,100646.25
2018-07-02T13:45:30.464Z,100638.03
2018-07-02T13:47:59.495Z,100644.91
2018-07-02T13:50:28.304Z,100637.48
2018-07-02T13:52:57.103Z,100638.80
2018-07-02T13:55:26.652Z,100632.27
2018-07-02T13:57:55.550Z,100650.96
2018-07-02T14:00:25.374Z,100640.63
2018-07-02T14:02:54.229Z,100632.11
2018-07-02T14:05:23.082Z,100620.52
2018-07-02T14:07:53.742Z,100624.13
2018-07-02T14:10:22.536Z,100633.19
2018-07-02T14:12:52.291Z,100619.20
2018-07-02T14:15:21.821Z,100627.63
2018-07-02T14:17:52.468Z,100628.73
2018-07-02T14:20:21.900Z,100609.77
2018-07-02T14:22:51.431Z,100620.44
2018-07-02T14:25:20.179Z,100621.17
2018-07-02T14:27:49.136Z,100616.72
2018-07-02T14:30:19.218Z,100617.42
2018-07-02T14:32:49.742Z,100628.59
2018-07-02T14:35:19.192Z,100609.17
2018-07-02T14:37:48.344Z,100623.16
2018-07-02T14:40:17.822Z,100617.22
2018-07-02T14:42:47.020Z,100610.17
2018-07-02T14:45:16.919Z,100617.16
2018-07-02T14:47:46.197Z,100612.66
2018-07-02T14:50:14.938Z,100613.37
2018-07-02T14:52:43.681Z,100608.33
2018-07-02T14:55:13.126Z,100614.30
2018-07-02T14:57:42.607Z,100608.41
2018-07-02T15:00:11.423Z,100603.33
2018-07-02T15:02:40.204Z,100637.27
2018-07-02T15:05:08.978Z,100603.84
2018-07-02T15:07:38.458Z,100607.31
2018-07-02T15:10:07.262Z,100598.14
2018-07-02T15:12:36.002Z,100605.70
2018-07-02T15:15:05.919Z,100611.19
2018-07-02T15:17:35.351Z,100599.92
2018-07-02T15:20:05.241Z,100604.70
2018-07-02T15:22:34.953Z,100597.68
2018-07-02T15:25:04.402Z,100591.25
2018-07-02T15:27:33.160Z,100604.95
2018-07-02T15:30:02.832Z,100583.36
2018-07-02T15:32:32.414Z,100588.28
2018-07-02T15:35:01.517Z,100597.83
2018-07-02T15:37:30.344Z,100598.08
2018-07-02T15:39:59.238Z,100591.98
2018-07-02T15:42:28.018Z,100594.35
2018-07-02T15:44:56.895Z,100592.27
2018-07-02T15:47:25.727Z,100591.20
2018-07-02T15:49:54.469Z,100590.38
2018-07-02T15:52:23.187Z,100585.48
2018-07-02T15:54:52.886Z,100595.63
2018-07-02T15:57:23.190Z,100588.83
2018-07-02T15:59:57.224Z,100579.91
2018-07-02T16:02:26.069Z,100588.31
2018-07-02T16:04:54.826Z,100586.65
2018-07-02T16:07:24.538Z,100591.39
2018-07-02T16:09:53.298Z,100589.23
2018-07-02T16:12:22.116Z,100590.25
2018-07-02T16:14:51.488Z,100586.81
2018-07-02T16:17:20.769Z,100579.13
2018-07-02T16:19:50.066Z,100595.45
2018-07-02T16:22:19.852Z,100587.28
2018-07-02T16:24:49.701Z,100591.25
2018-07-02T16:27:19.094Z,100590.80
2018-07-02T16:29:49.018Z,100587.77
2018-07-02T16:32:18.825Z,100581.56
2018-07-02T16:34:48.582Z,100585.03
2018-07-02T16:37:18.075Z,100582.41
2018-07-02T16:39:47.081Z,100582.81
2018-07-02T16:42:16.758Z,100588.61
2018-07-02T16:44:46.866Z,100586.08
2018-07-02T16:47:15.719Z,100587.84
2018-07-02T16:49:44.562Z,100582.34
2018-07-02T16:52:14.380Z,100587.58
2018-07-02T16:54:44.126Z,100594.10
2018-07-02T16:57:13.409Z,100595.90
2018-07-02T16:59:42.161Z,100587.01
2018-07-02T17:02:10.958Z,100582.16
2018-07-02T17:04:39.746Z,100583.15
2018-07-02T17:07:09.161Z,100577.61
2018-07-02T17:09:37.906Z,100570.67
2018-07-02T17:12:06.757Z,100580.69
2018-07-02T17:14:36.111Z,100581.25
2018-07-02T17:17:06.091Z,100574.37
2018-07-02T17:19:35.949Z,100575.19
2018-07-02T17:22:05.667Z,100580.14
2018-07-02T17:24:35.117Z,100574.62
2018-07-02T17:27:03.910Z,100580.22
2018-07-02T17:29:33.866Z,100579.61
2018-07-02T17:32:04.123Z,100575.71
2018-07-02T17:34:32.875Z,100595.45
2018-07-02T17:37:01.634Z,100587.08
2018-07-02T17:39:30.456Z,100579.49
2018-07-02T17:41:59.442Z,100580.51
2018-07-02T17:44:28.346Z,100574.34
2018-07-02T17:46:58.130Z,100572.47
2018-07-02T17:49:27.852Z,100581.83
2018-07-02T17:51:57.474Z,100581.83
2018-07-02T17:54:27.910Z,100593.84
2018-07-02T17:56:57.595Z,100596.03
2018-07-02T17:59:26.442Z,100582.84
2018-07-02T18:01:55.181Z,100588.98
2018-07-02T18:04:23.965Z,100599.27
2018-07-02T18:06:52.774Z,100584.81
2018-07-02T18:09:21.742Z,100599.64
2018-07-02T18:11:51.312Z,100597.24
2018-07-02T18:14:20.851Z,100599.16
2018-07-02T18:16:50.474Z,100605.19
2018-07-02T18:19:20.111Z,100607.42
2018-07-02T18:21:50.917Z,100605.58
2018-07-02T18:24:20.532Z,100607.51
2018-07-02T18:26:49.393Z,100614.66
2018-07-02T18:29:19.120Z,100619.03
2018-07-02T18:31:49.034Z,100622.35
2018-07-02T18:34:19.280Z,100618.84
2018-07-02T18:36:49.036Z,100623.53
2018-07-02T18:39:18.090Z,100625.67
2018-07-02T18:41:47.054Z,100627.61
2018-07-02T18:44:16.321Z,100632.55
2018-07-02T18:46:45.122Z,100640.73
2018-07-02T18:49:14.909Z,100639.38
2018-07-02T18:51:43.730Z,100639.88
2018-07-02T18:54:12.510Z,100639.04
2018-07-02T18:56:42.552Z,100647.77
2018-07-02T18:59:11.336Z,100644.47
2018-07-02T19:01:40.133Z,100643.92
2018-07-02T19:04:08.962Z,100644.73
2018-07-02T19:06:37.729Z,100639.02
2018-07-02T19:09:10.015Z,100644.73
2018-07-02T19:11:39.787Z,100641.98
2018-07-02T19:14:09.508Z,100648.24
2018-07-02T19:16:39.228Z,100649.30
2018-07-02T19:19:08.671Z,100650.37
2018-07-02T19:21:37.652Z,100654.98
2018-07-02T19:24:07.419Z,100645.95
2018-07-02T19:26:36.226Z,100654.34
2018-07-02T19:29:05.886Z,100654.84
2018-07-02T19:31:35.792Z,100663.27
2018-07-02T19:34:04.643Z,100658.02
2018-07-02T19:36:33.413Z,100662.86
2018-07-02T19:39:02.203Z,100665.80
2018-07-02T19:41:30.990Z,100675.01
2018-07-02T19:43:59.871Z,100676.61
2018-07-02T19:46:29.567Z,100668.92
2018-07-02T19:48:59.191Z,100680.06
2018-07-02T19:51:27.986Z,100677.63
2018-07-02T19:53:56.786Z,100676.75
2018-07-02T19:56:26.821Z,100671.27
2018-07-02T19:58:55.638Z,100678.83
2018-07-02T20:01:25.168Z,100674.19
2018-07-02T20:03:53.973Z,100673.11
2018-07-02T20:06:22.792Z,100675.27
2018-07-02T20:08:51.594Z,100676.08
2018-07-02T20:11:21.309Z,100678.55
2018-07-02T20:13:50.966Z,100673.08
2018-07-02T20:16:20.512Z,100678.47
2018-07-02T20:18:50.048Z,100676.52
2018-07-02T20:21:18.959Z,100673.52
2018-07-02T20:23:48.902Z,100668.33
2018-07-02T20:26:17.999Z,100670.73
2018-07-02T20:28:47.878Z,100671.27
2018-07-02T20:31:17.663Z,100670.99
2018-07-02T20:33:46.697Z,100667.14
2018-07-02T20:36:16.041Z,100670.11
2018-07-02T20:38:45.394Z,100670.09
2018-07-02T20:41:14.310Z,100667.37
2018-07-02T20:43:43.930Z,100663.58
2018-07-02T20:46:12.683Z,100672.27
2018-07-02T20:48:41.430Z,100670.37
2018-07-02T20:51:10.250Z,100671.45
2018-07-02T20:53:39.450Z,100677.13
2018-07-02T20:56:09.805Z,100672.23
2018-07-02T20:58:38.582Z,100676.31
2018-07-02T21:01:07.415Z,100672.48
2018-07-02T21:03:36.221Z,100664.59
2018-07-02T21:06:05.018Z,100661.56
2018-07-02T21:08:33.926Z,100652.84
2018-07-02T21:11:03.492Z,100655.53
2018-07-02T21:13:33.147Z,100657.64
2018-07-02T21:16:03.021Z,100653.23
2018-07-02T21:18:32.567Z,100657.83
2018-07-02T21:21:01.370Z,100651.52
2018-07-02T21:23:30.609Z,100660.98
2018-07-02T21:25:59.397Z,100655.23
2018-07-02T21:28:28.815Z,100656.99
2018-07-02T21:30:58.483Z,100651.98
2018-07-02T21:33:27.241Z,100655.48
2018-07-02T21:35:56.019Z,100657.34
2018-07-02T21:38:24.803Z,100660.23
2018-07-02T21:40:54.830Z,100661.21
2018-07-02T21:43:23.583Z,100655.13
2018-07-02T21:45:53.125Z,100649.95
2018-07-02T21:48:22.467Z,100650.65
2018-07-02T21:50:51.261Z,100649.78
2018-07-02T21:53:21.013Z,100651.44
2018-07-02T21:55:50.579Z,100646.01
2018-07-02T21:58:19.403Z,100649.83
2018-07-02T22:00:49.283Z,100650.08
2018-07-02T22:03:18.598Z,100647.36
2018-07-02T22:05:47.673Z,100652.70
2018-07-02T22:08:16.739Z,100654.22
2018-07-02T22:10:46.118Z,100645.20
2018-07-02T22:13:16.363Z,100643.81
2018-07-02T22:15:46.743Z,100643.77
2018-07-02T22:18:16.874Z,100644.34
2018-07-02T22:20:45.693Z,100645.12
2018-07-02T22:23:15.235Z,100642.66
2018-07-02T22:25:44.008Z,100635.30
2018-07-02T22:28:13.695Z,100636.11
2018-07-02T22:30:42.686Z,100626.64
2018-07-02T22:33:12.182Z,100627.12
2018-07-02T22:35:40.967Z,100631.72
2018-07-02T22:38:10.229Z,100628.16
2018-07-02T22:40:39.033Z,100629.95
2018-07-02T22:43:07.853Z,100623.66
2018-07-02T22:45:36.649Z,100627.14
2018-07-02T22:48:05.439Z,100622.50
2018-07-02T22:50:34.319Z,100619.75
2018-07-02T22:53:03.271Z,100616.22
2018-07-02T22:55:41.348Z,100615.38
2018-07-02T22:58:10.094Z,100609.67
2018-07-02T23:00:38.850Z,100616.64
2018-07-02T23:03:07.753Z,100620.08
2018-07-02T23:05:36.615Z,100624.67
2018-07-02T23:08:05.498Z,100619.20
2018-07-02T23:10:34.618Z,100610.78
2018-07-02T23:13:04.223Z,100608.80
2018-07-02T23:15:34.219Z,100614.80
2018-07-02T23:18:04.004Z,100615.33
2018-07-02T23:20:32.752Z,100607.78
2018-07-02T23:23:03.726Z,100604.02
2018-07-02T23:25:32.507Z,100600.20
2018-07-02T23:28:02.280Z,100604.50
2018-07-02T23:30:33.005Z,100604.12
2018-07-02T23:33:02.486Z,100598.11
2018-07-02T23:35:32.174Z,100604.01
2018-07-02T23:38:00.948Z,100604.20
2018-07-02T23:40:29.759Z,100605.48
2018-07-02T23:42:58.631Z,100597.03
2018-07-02T23:45:27.420Z,100603.75
2018-07-02T23:47:56.774Z,100602.05
2018-07-02T23:50:25.618Z,100601.22
2018-07-02T23:52:54.406Z,100599.57
2018-07-02T23:55:24.233Z,100600.05
2018-07-02T23:57:53.029Z,100598.36
